sensor_id;sensor_type;location;lat;lon;timestamp;P1;durP1;ratioP1;P2;durP2;ratioP2
7817;SDS011;3954;52.624;9.212;2023-10-08T00:00:22;1.00;;;1.00;;
7817;SDS011;3954;52.624;9.212;2023-10-08T00:03:08;0.70;;;0.70;;
7817;SDS011;3954;52.624;9.212;2023-10-08T00:05:35;0.80;;;0.80;;
7817;SDS011;3954;52.624;9.212;2023-10-08T00:08:01;0.60;;;0.60;;
7817;SDS011;3954;52.624;9.212;2023-10-08T00:10:29;0.60;;;0.60;;
7817;SDS011;3954;52.624;9.212;2023-10-08T00:12:59;0.60;;;0.60;;
7817;SDS011;3954;52.624;9.212;2023-10-08T00:15:26;1.37;;;0.90;;
7817;SDS011;3954;52.624;9.212;2023-10-08T00:17:52;0.73;;;0.73;;
7817;SDS011;3954;52.624;9.212;2023-10-08T00:20:25;1.87;;;1.07;;
7817;SDS011;3954;52.624;9.212;2023-10-08T00:22:53;0.77;;;0.67;;
7817;SDS011;3954;52.624;9.212;2023-10-08T00:25:20;1.27;;;1.17;;
7817;SDS011;3954;52.624;9.212;2023-10-08T00:27:46;0.97;;;0.90;;
7817;SDS011;3954;52.624;9.212;2023-10-08T00:30:16;1.43;;;1.10;;
7817;SDS011;3954;52.624;9.212;2023-10-08T00:32:45;1.30;;;1.20;;
7817;SDS011;3954;52.624;9.212;2023-10-08T00:35:11;1.43;;;1.33;;
7817;SDS011;3954;52.624;9.212;2023-10-08T00:37:46;1.70;;;1.33;;
7817;SDS011;3954;52.624;9.212;2023-10-08T00:40:13;2.37;;;1.40;;
7817;SDS011;3954;52.624;9.212;2023-10-08T00:42:46;2.80;;;1.20;;
7817;SDS011;3954;52.624;9.212;2023-10-08T00:45:12;1.80;;;1.07;;
7817;SDS011;3954;52.624;9.212;2023-10-08T00:47:39;2.07;;;1.30;;
7817;SDS011;3954;52.624;9.212;2023-10-08T00:50:08;1.53;;;1.10;;
7817;SDS011;3954;52.624;9.212;2023-10-08T00:52:36;1.80;;;1.10;;
7817;SDS011;3954;52.624;9.212;2023-10-08T00:55:06;1.40;;;1.10;;
7817;SDS011;3954;52.624;9.212;2023-10-08T00:57:34;1.10;;;1.10;;
7817;SDS011;3954;52.624;9.212;2023-10-08T01:00:02;2.37;;;1.20;;
7817;SDS011;3954;52.624;9.212;2023-10-08T01:02:31;2.53;;;1.20;;
7817;SDS011;3954;52.624;9.212;2023-10-08T01:05:25;1.20;;;1.10;;
7817;SDS011;3954;52.624;9.212;2023-10-08T01:08:01;1.73;;;1.30;;
7817;SDS011;3954;52.624;9.212;2023-10-08T01:10:32;1.83;;;1.40;;
7817;SDS011;3954;52.624;9.212;2023-10-08T01:12:59;1.60;;;1.47;;
7817;SDS011;3954;52.624;9.212;2023-10-08T01:15:40;2.63;;;1.40;;
7817;SDS011;3954;52.624;9.212;2023-10-08T01:18:06;1.60;;;1.20;;
7817;SDS011;3954;52.624;9.212;2023-10-08T01:20:40;1.83;;;1.20;;
7817;SDS011;3954;52.624;9.212;2023-10-08T01:23:19;1.63;;;1.43;;
7817;SDS011;3954;52.624;9.212;2023-10-08T01:25:52;3.63;;;1.30;;
7817;SDS011;3954;52.624;9.212;2023-10-08T01:28:24;2.63;;;1.40;;
7817;SDS011;3954;52.624;9.212;2023-10-08T01:30:56;1.20;;;1.10;;
7817;SDS011;3954;52.624;9.212;2023-10-08T01:33:25;1.70;;;1.20;;
7817;SDS011;3954;52.624;9.212;2023-10-08T01:36:03;1.40;;;1.30;;
7817;SDS011;3954;52.624;9.212;2023-10-08T01:38:31;1.40;;;1.30;;
7817;SDS011;3954;52.624;9.212;2023-10-08T01:41:00;2.07;;;1.20;;
7817;SDS011;3954;52.624;9.212;2023-10-08T01:43:30;4.20;;;1.40;;
7817;SDS011;3954;52.624;9.212;2023-10-08T01:45:56;1.70;;;1.43;;
7817;SDS011;3954;52.624;9.212;2023-10-08T01:48:23;2.73;;;1.30;;
7817;SDS011;3954;52.624;9.212;2023-10-08T01:51:02;2.93;;;1.30;;
7817;SDS011;3954;52.624;9.212;2023-10-08T01:53:37;2.07;;;1.40;;
7817;SDS011;3954;52.624;9.212;2023-10-08T01:56:04;2.03;;;1.07;;
7817;SDS011;3954;52.624;9.212;2023-10-08T01:58:31;1.30;;;1.10;;
7817;SDS011;3954;52.624;9.212;2023-10-08T02:00:59;1.73;;;1.10;;
7817;SDS011;3954;52.624;9.212;2023-10-08T02:03:25;1.10;;;1.00;;
7817;SDS011;3954;52.624;9.212;2023-10-08T02:05:52;1.97;;;1.10;;
7817;SDS011;3954;52.624;9.212;2023-10-08T02:08:23;1.53;;;1.10;;
7817;SDS011;3954;52.624;9.212;2023-10-08T02:10:52;3.30;;;1.60;;
7817;SDS011;3954;52.624;9.212;2023-10-08T02:13:18;2.00;;;1.30;;
7817;SDS011;3954;52.624;9.212;2023-10-08T02:15:45;1.67;;;1.13;;
7817;SDS011;3954;52.624;9.212;2023-10-08T02:18:12;1.20;;;1.10;;
7817;SDS011;3954;52.624;9.212;2023-10-08T02:20:38;1.27;;;1.10;;
7817;SDS011;3954;52.624;9.212;2023-10-08T02:23:04;2.37;;;0.93;;
7817;SDS011;3954;52.624;9.212;2023-10-08T02:25:31;1.20;;;1.10;;
7817;SDS011;3954;52.624;9.212;2023-10-08T02:27:58;1.20;;;1.10;;
7817;SDS011;3954;52.624;9.212;2023-10-08T02:30:24;1.90;;;1.50;;
7817;SDS011;3954;52.624;9.212;2023-10-08T02:32:52;1.20;;;1.10;;
7817;SDS011;3954;52.624;9.212;2023-10-08T02:35:18;2.27;;;1.20;;
7817;SDS011;3954;52.624;9.212;2023-10-08T02:37:44;2.40;;;1.47;;
7817;SDS011;3954;52.624;9.212;2023-10-08T02:40:11;1.23;;;1.10;;
7817;SDS011;3954;52.624;9.212;2023-10-08T02:42:53;2.03;;;1.13;;
7817;SDS011;3954;52.624;9.212;2023-10-08T02:45:27;1.37;;;0.90;;
7817;SDS011;3954;52.624;9.212;2023-10-08T02:47:54;1.50;;;0.90;;
7817;SDS011;3954;52.624;9.212;2023-10-08T02:50:20;1.77;;;1.20;;
7817;SDS011;3954;52.624;9.212;2023-10-08T02:52:47;1.63;;;1.40;;
7817;SDS011;3954;52.624;9.212;2023-10-08T02:55:15;1.90;;;1.10;;
7817;SDS011;3954;52.624;9.212;2023-10-08T02:58:04;1.73;;;1.63;;
7817;SDS011;3954;52.624;9.212;2023-10-08T03:00:31;2.00;;;1.43;;
7817;SDS011;3954;52.624;9.212;2023-10-08T03:02:59;2.53;;;1.20;;
7817;SDS011;3954;52.624;9.212;2023-10-08T03:05:27;1.83;;;1.40;;
7817;SDS011;3954;52.624;9.212;2023-10-08T03:08:00;1.10;;;1.00;;
7817;SDS011;3954;52.624;9.212;2023-10-08T03:10:26;1.60;;;1.50;;
7817;SDS011;3954;52.624;9.212;2023-10-08T03:12:58;2.00;;;1.20;;
7817;SDS011;3954;52.624;9.212;2023-10-08T03:15:33;1.90;;;1.50;;
7817;SDS011;3954;52.624;9.212;2023-10-08T03:18:11;1.20;;;1.10;;
7817;SDS011;3954;52.624;9.212;2023-10-08T03:20:39;3.67;;;1.50;;
7817;SDS011;3954;52.624;9.212;2023-10-08T03:23:14;1.70;;;1.20;;
7817;SDS011;3954;52.624;9.212;2023-10-08T03:25:55;1.70;;;1.17;;
7817;SDS011;3954;52.624;9.212;2023-10-08T03:28:26;2.57;;;1.40;;
7817;SDS011;3954;52.624;9.212;2023-10-08T03:30:54;4.53;;;1.40;;
7817;SDS011;3954;52.624;9.212;2023-10-08T03:33:29;1.97;;;1.10;;
7817;SDS011;3954;52.624;9.212;2023-10-08T03:35:59;2.07;;;1.40;;
7817;SDS011;3954;52.624;9.212;2023-10-08T03:38:25;1.20;;;1.10;;
7817;SDS011;3954;52.624;9.212;2023-10-08T03:41:09;2.30;;;1.33;;
7817;SDS011;3954;52.624;9.212;2023-10-08T03:43:41;1.97;;;1.50;;
7817;SDS011;3954;52.624;9.212;2023-10-08T03:46:27;1.30;;;1.20;;
7817;SDS011;3954;52.624;9.212;2023-10-08T03:48:53;2.03;;;1.50;;
7817;SDS011;3954;52.624;9.212;2023-10-08T03:51:22;1.63;;;1.30;;
7817;SDS011;3954;52.624;9.212;2023-10-08T03:53:52;2.17;;;1.40;;
7817;SDS011;3954;52.624;9.212;2023-10-08T03:56:31;1.43;;;1.20;;
7817;SDS011;3954;52.624;9.212;2023-10-08T03:59:01;1.90;;;1.33;;
7817;SDS011;3954;52.624;9.212;2023-10-08T04:01:46;2.80;;;1.57;;
7817;SDS011;3954;52.624;9.212;2023-10-08T04:04:19;2.03;;;1.50;;
7817;SDS011;3954;52.624;9.212;2023-10-08T04:06:47;1.60;;;1.50;;
7817;SDS011;3954;52.624;9.212;2023-10-08T04:09:14;2.33;;;1.30;;
7817;SDS011;3954;52.624;9.212;2023-10-08T04:11:49;3.00;;;1.70;;
7817;SDS011;3954;52.624;9.212;2023-10-08T04:14:21;1.80;;;1.57;;
7817;SDS011;3954;52.624;9.212;2023-10-08T04:16:49;1.80;;;1.50;;
7817;SDS011;3954;52.624;9.212;2023-10-08T04:19:19;1.67;;;1.57;;
7817;SDS011;3954;52.624;9.212;2023-10-08T04:21:46;1.93;;;1.53;;
7817;SDS011;3954;52.624;9.212;2023-10-08T04:24:19;3.50;;;1.50;;
7817;SDS011;3954;52.624;9.212;2023-10-08T04:26:45;3.33;;;1.90;;
7817;SDS011;3954;52.624;9.212;2023-10-08T04:29:13;3.40;;;2.10;;
7817;SDS011;3954;52.624;9.212;2023-10-08T04:31:41;2.40;;;1.60;;
7817;SDS011;3954;52.624;9.212;2023-10-08T04:34:13;5.10;;;2.00;;
7817;SDS011;3954;52.624;9.212;2023-10-08T04:36:42;2.87;;;1.80;;
7817;SDS011;3954;52.624;9.212;2023-10-08T04:39:10;2.93;;;1.70;;
7817;SDS011;3954;52.624;9.212;2023-10-08T04:41:39;2.43;;;1.50;;
7817;SDS011;3954;52.624;9.212;2023-10-08T04:44:07;3.53;;;1.83;;
7817;SDS011;3954;52.624;9.212;2023-10-08T04:46:39;2.23;;;1.50;;
7817;SDS011;3954;52.624;9.212;2023-10-08T04:49:13;2.57;;;2.10;;
7817;SDS011;3954;52.624;9.212;2023-10-08T04:51:51;2.07;;;1.87;;
7817;SDS011;3954;52.624;9.212;2023-10-08T04:54:21;2.83;;;1.93;;
7817;SDS011;3954;52.624;9.212;2023-10-08T04:56:47;3.27;;;1.87;;
7817;SDS011;3954;52.624;9.212;2023-10-08T04:59:14;2.30;;;2.10;;
7817;SDS011;3954;52.624;9.212;2023-10-08T05:01:45;2.63;;;1.80;;
7817;SDS011;3954;52.624;9.212;2023-10-08T05:04:35;2.40;;;1.83;;
7817;SDS011;3954;52.624;9.212;2023-10-08T05:07:20;3.87;;;1.97;;
7817;SDS011;3954;52.624;9.212;2023-10-08T05:10:06;2.10;;;1.90;;
7817;SDS011;3954;52.624;9.212;2023-10-08T05:12:32;2.13;;;1.93;;
7817;SDS011;3954;52.624;9.212;2023-10-08T05:14:58;4.23;;;2.40;;
7817;SDS011;3954;52.624;9.212;2023-10-08T05:17:39;3.23;;;2.07;;
7817;SDS011;3954;52.624;9.212;2023-10-08T05:20:16;2.53;;;2.13;;
7817;SDS011;3954;52.624;9.212;2023-10-08T05:22:54;3.50;;;2.20;;
7817;SDS011;3954;52.624;9.212;2023-10-08T05:25:30;2.83;;;1.80;;
7817;SDS011;3954;52.624;9.212;2023-10-08T05:28:22;3.23;;;2.17;;
7817;SDS011;3954;52.624;9.212;2023-10-08T05:30:51;3.63;;;2.17;;
7817;SDS011;3954;52.624;9.212;2023-10-08T05:33:36;2.30;;;2.10;;
7817;SDS011;3954;52.624;9.212;2023-10-08T05:36:36;3.57;;;2.40;;
7817;SDS011;3954;52.624;9.212;2023-10-08T05:39:22;2.93;;;2.20;;
7817;SDS011;3954;52.624;9.212;2023-10-08T05:42:03;2.80;;;2.50;;
7817;SDS011;3954;52.624;9.212;2023-10-08T05:44:42;3.40;;;2.80;;
7817;SDS011;3954;52.624;9.212;2023-10-08T05:47:11;5.87;;;2.47;;
7817;SDS011;3954;52.624;9.212;2023-10-08T05:49:54;3.07;;;2.30;;
7817;SDS011;3954;52.624;9.212;2023-10-08T05:52:41;3.60;;;2.10;;
7817;SDS011;3954;52.624;9.212;2023-10-08T05:55:22;5.00;;;2.83;;
7817;SDS011;3954;52.624;9.212;2023-10-08T05:57:52;3.13;;;2.33;;
7817;SDS011;3954;52.624;9.212;2023-10-08T06:00:38;4.43;;;2.87;;
7817;SDS011;3954;52.624;9.212;2023-10-08T06:03:16;2.90;;;2.60;;
7817;SDS011;3954;52.624;9.212;2023-10-08T06:06:03;4.87;;;3.20;;
7817;SDS011;3954;52.624;9.212;2023-10-08T06:08:39;4.50;;;2.90;;
7817;SDS011;3954;52.624;9.212;2023-10-08T06:11:33;3.37;;;2.50;;
7817;SDS011;3954;52.624;9.212;2023-10-08T06:14:09;5.10;;;3.10;;
7817;SDS011;3954;52.624;9.212;2023-10-08T06:17:13;3.80;;;3.10;;
7817;SDS011;3954;52.624;9.212;2023-10-08T06:19:59;4.63;;;2.87;;
7817;SDS011;3954;52.624;9.212;2023-10-08T06:22:34;5.63;;;3.40;;
7817;SDS011;3954;52.624;9.212;2023-10-08T06:25:02;3.33;;;3.00;;
7817;SDS011;3954;52.624;9.212;2023-10-08T06:27:42;3.37;;;2.97;;
7817;SDS011;3954;52.624;9.212;2023-10-08T06:30:10;5.40;;;3.50;;
7817;SDS011;3954;52.624;9.212;2023-10-08T06:32:41;4.03;;;3.40;;
7817;SDS011;3954;52.624;9.212;2023-10-08T06:35:09;4.83;;;3.30;;
7817;SDS011;3954;52.624;9.212;2023-10-08T06:37:42;4.77;;;3.43;;
7817;SDS011;3954;52.624;9.212;2023-10-08T06:40:10;5.13;;;3.03;;
7817;SDS011;3954;52.624;9.212;2023-10-08T06:42:56;4.03;;;3.27;;
7817;SDS011;3954;52.624;9.212;2023-10-08T06:45:22;3.83;;;3.30;;
7817;SDS011;3954;52.624;9.212;2023-10-08T06:47:48;5.07;;;3.43;;
7817;SDS011;3954;52.624;9.212;2023-10-08T06:50:15;4.50;;;3.37;;
7817;SDS011;3954;52.624;9.212;2023-10-08T06:52:41;4.97;;;3.20;;
7817;SDS011;3954;52.624;9.212;2023-10-08T06:55:09;4.73;;;3.57;;
7817;SDS011;3954;52.624;9.212;2023-10-08T06:57:36;4.73;;;3.40;;
7817;SDS011;3954;52.624;9.212;2023-10-08T07:00:03;7.20;;;4.00;;
7817;SDS011;3954;52.624;9.212;2023-10-08T07:02:37;4.23;;;3.80;;
7817;SDS011;3954;52.624;9.212;2023-10-08T07:05:04;7.20;;;4.27;;
7817;SDS011;3954;52.624;9.212;2023-10-08T07:07:34;4.90;;;3.77;;
7817;SDS011;3954;52.624;9.212;2023-10-08T07:10:04;6.10;;;3.50;;
7817;SDS011;3954;52.624;9.212;2023-10-08T07:12:37;7.03;;;4.27;;
7817;SDS011;3954;52.624;9.212;2023-10-08T07:15:04;7.63;;;3.80;;
7817;SDS011;3954;52.624;9.212;2023-10-08T07:17:36;6.93;;;3.60;;
7817;SDS011;3954;52.624;9.212;2023-10-08T07:20:05;4.10;;;3.70;;
7817;SDS011;3954;52.624;9.212;2023-10-08T07:22:38;4.93;;;4.03;;
7817;SDS011;3954;52.624;9.212;2023-10-08T07:25:08;5.50;;;3.77;;
7817;SDS011;3954;52.624;9.212;2023-10-08T07:27:38;3.80;;;3.50;;
7817;SDS011;3954;52.624;9.212;2023-10-08T07:30:05;5.27;;;4.17;;
7817;SDS011;3954;52.624;9.212;2023-10-08T07:32:35;5.63;;;4.83;;
7817;SDS011;3954;52.624;9.212;2023-10-08T07:35:03;5.40;;;4.17;;
7817;SDS011;3954;52.624;9.212;2023-10-08T07:37:45;5.87;;;4.33;;
7817;SDS011;3954;52.624;9.212;2023-10-08T07:40:12;8.40;;;4.00;;
7817;SDS011;3954;52.624;9.212;2023-10-08T07:42:40;7.23;;;4.50;;
7817;SDS011;3954;52.624;9.212;2023-10-08T07:45:06;7.40;;;4.90;;
7817;SDS011;3954;52.624;9.212;2023-10-08T07:47:33;5.53;;;4.17;;
7817;SDS011;3954;52.624;9.212;2023-10-08T07:49:59;8.10;;;4.27;;
7817;SDS011;3954;52.624;9.212;2023-10-08T07:52:26;5.33;;;4.30;;
7817;SDS011;3954;52.624;9.212;2023-10-08T07:54:54;3.70;;;3.30;;
7817;SDS011;3954;52.624;9.212;2023-10-08T07:57:20;5.40;;;4.20;;
7817;SDS011;3954;52.624;9.212;2023-10-08T07:59:52;6.23;;;4.37;;
7817;SDS011;3954;52.624;9.212;2023-10-08T08:02:41;5.03;;;4.07;;
7817;SDS011;3954;52.624;9.212;2023-10-08T08:05:07;6.47;;;4.17;;
7817;SDS011;3954;52.624;9.212;2023-10-08T08:07:33;6.37;;;4.93;;
7817;SDS011;3954;52.624;9.212;2023-10-08T08:09:59;5.20;;;3.77;;
7817;SDS011;3954;52.624;9.212;2023-10-08T08:12:26;4.83;;;3.60;;
7817;SDS011;3954;52.624;9.212;2023-10-08T08:15:01;5.37;;;3.83;;
7817;SDS011;3954;52.624;9.212;2023-10-08T08:17:39;5.33;;;3.50;;
7817;SDS011;3954;52.624;9.212;2023-10-08T08:20:06;6.10;;;4.20;;
7817;SDS011;3954;52.624;9.212;2023-10-08T08:22:42;5.23;;;3.73;;
7817;SDS011;3954;52.624;9.212;2023-10-08T08:25:14;5.50;;;3.70;;
7817;SDS011;3954;52.624;9.212;2023-10-08T08:27:41;4.37;;;3.73;;
7817;SDS011;3954;52.624;9.212;2023-10-08T08:30:11;4.63;;;4.00;;
7817;SDS011;3954;52.624;9.212;2023-10-08T08:32:40;5.27;;;3.93;;
7817;SDS011;3954;52.624;9.212;2023-10-08T08:35:12;4.70;;;3.43;;
7817;SDS011;3954;52.624;9.212;2023-10-08T08:37:41;5.17;;;2.97;;
7817;SDS011;3954;52.624;9.212;2023-10-08T08:40:07;4.23;;;2.93;;
7817;SDS011;3954;52.624;9.212;2023-10-08T08:42:42;5.93;;;2.60;;
7817;SDS011;3954;52.624;9.212;2023-10-08T08:45:12;5.33;;;2.80;;
7817;SDS011;3954;52.624;9.212;2023-10-08T08:47:39;7.30;;;2.97;;
7817;SDS011;3954;52.624;9.212;2023-10-08T08:50:06;5.27;;;2.50;;
7817;SDS011;3954;52.624;9.212;2023-10-08T08:52:35;5.23;;;2.50;;
7817;SDS011;3954;52.624;9.212;2023-10-08T08:55:05;3.83;;;2.67;;
7817;SDS011;3954;52.624;9.212;2023-10-08T08:57:39;4.93;;;2.50;;
7817;SDS011;3954;52.624;9.212;2023-10-08T09:00:07;5.90;;;2.47;;
7817;SDS011;3954;52.624;9.212;2023-10-08T09:02:36;5.63;;;2.00;;
7817;SDS011;3954;52.624;9.212;2023-10-08T09:05:03;4.67;;;1.93;;
7817;SDS011;3954;52.624;9.212;2023-10-08T09:07:51;4.27;;;1.70;;
7817;SDS011;3954;52.624;9.212;2023-10-08T09:10:17;8.33;;;2.17;;
7817;SDS011;3954;52.624;9.212;2023-10-08T09:12:43;5.20;;;1.77;;
7817;SDS011;3954;52.624;9.212;2023-10-08T09:15:10;4.07;;;1.70;;
7817;SDS011;3954;52.624;9.212;2023-10-08T09:17:39;3.27;;;1.60;;
7817;SDS011;3954;52.624;9.212;2023-10-08T09:20:06;3.13;;;1.50;;
7817;SDS011;3954;52.624;9.212;2023-10-08T09:22:32;4.40;;;1.80;;
7817;SDS011;3954;52.624;9.212;2023-10-08T09:25:00;4.40;;;1.40;;
7817;SDS011;3954;52.624;9.212;2023-10-08T09:27:32;3.73;;;1.70;;
7817;SDS011;3954;52.624;9.212;2023-10-08T09:29:58;4.83;;;1.60;;
7817;SDS011;3954;52.624;9.212;2023-10-08T09:32:33;4.30;;;1.77;;
7817;SDS011;3954;52.624;9.212;2023-10-08T09:35:00;3.93;;;1.93;;
7817;SDS011;3954;52.624;9.212;2023-10-08T09:37:27;4.30;;;1.37;;
7817;SDS011;3954;52.624;9.212;2023-10-08T09:39:54;2.93;;;1.70;;
7817;SDS011;3954;52.624;9.212;2023-10-08T09:42:20;3.17;;;1.60;;
7817;SDS011;3954;52.624;9.212;2023-10-08T09:44:49;4.23;;;1.63;;
7817;SDS011;3954;52.624;9.212;2023-10-08T09:47:17;5.63;;;1.67;;
7817;SDS011;3954;52.624;9.212;2023-10-08T09:50:01;5.20;;;1.80;;
7817;SDS011;3954;52.624;9.212;2023-10-08T09:52:34;4.63;;;1.53;;
7817;SDS011;3954;52.624;9.212;2023-10-08T09:55:06;3.13;;;1.80;;
7817;SDS011;3954;52.624;9.212;2023-10-08T09:57:35;4.67;;;1.90;;
7817;SDS011;3954;52.624;9.212;2023-10-08T10:00:01;3.37;;;1.67;;
7817;SDS011;3954;52.624;9.212;2023-10-08T10:02:30;7.83;;;1.70;;
7817;SDS011;3954;52.624;9.212;2023-10-08T10:04:57;3.77;;;2.03;;
7817;SDS011;3954;52.624;9.212;2023-10-08T10:07:24;7.10;;;2.03;;
7817;SDS011;3954;52.624;9.212;2023-10-08T10:09:54;5.63;;;2.03;;
7817;SDS011;3954;52.624;9.212;2023-10-08T10:12:24;5.70;;;1.73;;
7817;SDS011;3954;52.624;9.212;2023-10-08T10:14:52;6.07;;;1.80;;
7817;SDS011;3954;52.624;9.212;2023-10-08T10:17:20;3.17;;;1.53;;
7817;SDS011;3954;52.624;9.212;2023-10-08T10:19:49;3.07;;;1.50;;
7817;SDS011;3954;52.624;9.212;2023-10-08T10:22:26;6.47;;;1.83;;
7817;SDS011;3954;52.624;9.212;2023-10-08T10:24:55;4.10;;;1.50;;
7817;SDS011;3954;52.624;9.212;2023-10-08T10:27:22;4.17;;;1.97;;
7817;SDS011;3954;52.624;9.212;2023-10-08T10:29:48;5.77;;;1.67;;
7817;SDS011;3954;52.624;9.212;2023-10-08T10:32:14;4.03;;;1.60;;
7817;SDS011;3954;52.624;9.212;2023-10-08T10:34:41;4.60;;;2.00;;
7817;SDS011;3954;52.624;9.212;2023-10-08T10:37:07;3.87;;;1.63;;
7817;SDS011;3954;52.624;9.212;2023-10-08T10:39:34;3.20;;;1.50;;
7817;SDS011;3954;52.624;9.212;2023-10-08T10:42:06;4.57;;;1.80;;
7817;SDS011;3954;52.624;9.212;2023-10-08T10:44:45;4.70;;;1.50;;
7817;SDS011;3954;52.624;9.212;2023-10-08T10:47:14;8.17;;;1.97;;
7817;SDS011;3954;52.624;9.212;2023-10-08T10:49:40;3.97;;;1.90;;
7817;SDS011;3954;52.624;9.212;2023-10-08T10:52:26;5.83;;;1.90;;
7817;SDS011;3954;52.624;9.212;2023-10-08T10:55:09;4.40;;;1.50;;
7817;SDS011;3954;52.624;9.212;2023-10-08T10:57:43;3.37;;;1.77;;
7817;SDS011;3954;52.624;9.212;2023-10-08T11:00:09;4.37;;;1.90;;
7817;SDS011;3954;52.624;9.212;2023-10-08T11:02:55;4.80;;;1.60;;
7817;SDS011;3954;52.624;9.212;2023-10-08T11:05:27;4.73;;;1.80;;
7817;SDS011;3954;52.624;9.212;2023-10-08T11:07:54;3.17;;;1.67;;
7817;SDS011;3954;52.624;9.212;2023-10-08T11:10:25;3.80;;;1.80;;
7817;SDS011;3954;52.624;9.212;2023-10-08T11:12:54;3.77;;;1.87;;
7817;SDS011;3954;52.624;9.212;2023-10-08T11:15:24;4.70;;;1.90;;
7817;SDS011;3954;52.624;9.212;2023-10-08T11:17:57;5.10;;;1.70;;
7817;SDS011;3954;52.624;9.212;2023-10-08T11:20:25;5.17;;;1.60;;
7817;SDS011;3954;52.624;9.212;2023-10-08T11:22:51;5.67;;;1.80;;
7817;SDS011;3954;52.624;9.212;2023-10-08T11:25:22;5.93;;;1.93;;
7817;SDS011;3954;52.624;9.212;2023-10-08T11:27:50;4.50;;;1.67;;
7817;SDS011;3954;52.624;9.212;2023-10-08T11:30:25;5.63;;;2.00;;
7817;SDS011;3954;52.624;9.212;2023-10-08T11:32:55;3.70;;;1.80;;
7817;SDS011;3954;52.624;9.212;2023-10-08T11:35:22;5.53;;;1.60;;
7817;SDS011;3954;52.624;9.212;2023-10-08T11:37:48;3.43;;;1.97;;
7817;SDS011;3954;52.624;9.212;2023-10-08T11:40:21;7.47;;;2.03;;
7817;SDS011;3954;52.624;9.212;2023-10-08T11:42:53;8.60;;;2.37;;
7817;SDS011;3954;52.624;9.212;2023-10-08T11:45:21;3.60;;;1.80;;
7817;SDS011;3954;52.624;9.212;2023-10-08T11:48:05;5.40;;;1.80;;
7817;SDS011;3954;52.624;9.212;2023-10-08T11:50:36;5.60;;;1.90;;
7817;SDS011;3954;52.624;9.212;2023-10-08T11:53:03;6.17;;;2.07;;
7817;SDS011;3954;52.624;9.212;2023-10-08T11:55:33;3.13;;;1.50;;
7817;SDS011;3954;52.624;9.212;2023-10-08T11:58:00;6.70;;;2.10;;
7817;SDS011;3954;52.624;9.212;2023-10-08T12:00:34;5.90;;;1.93;;
7817;SDS011;3954;52.624;9.212;2023-10-08T12:03:01;3.27;;;1.73;;
7817;SDS011;3954;52.624;9.212;2023-10-08T12:05:31;3.67;;;1.77;;
7817;SDS011;3954;52.624;9.212;2023-10-08T12:07:59;3.00;;;1.47;;
7817;SDS011;3954;52.624;9.212;2023-10-08T12:10:25;2.57;;;1.60;;
7817;SDS011;3954;52.624;9.212;2023-10-08T12:12:51;5.90;;;1.80;;
7817;SDS011;3954;52.624;9.212;2023-10-08T12:15:18;4.53;;;1.77;;
7817;SDS011;3954;52.624;9.212;2023-10-08T12:17:47;4.27;;;1.87;;
7817;SDS011;3954;52.624;9.212;2023-10-08T12:20:33;7.10;;;1.83;;
7817;SDS011;3954;52.624;9.212;2023-10-08T12:23:02;4.10;;;1.60;;
7817;SDS011;3954;52.624;9.212;2023-10-08T12:25:28;4.17;;;1.70;;
7817;SDS011;3954;52.624;9.212;2023-10-08T12:27:57;3.70;;;1.70;;
7817;SDS011;3954;52.624;9.212;2023-10-08T12:30:23;3.13;;;1.73;;
7817;SDS011;3954;52.624;9.212;2023-10-08T12:32:55;3.87;;;1.90;;
7817;SDS011;3954;52.624;9.212;2023-10-08T12:35:22;2.60;;;1.70;;
7817;SDS011;3954;52.624;9.212;2023-10-08T12:37:50;7.40;;;2.03;;
7817;SDS011;3954;52.624;9.212;2023-10-08T12:40:16;6.30;;;2.00;;
7817;SDS011;3954;52.624;9.212;2023-10-08T12:42:48;3.70;;;1.93;;
7817;SDS011;3954;52.624;9.212;2023-10-08T12:45:15;6.80;;;2.00;;
7817;SDS011;3954;52.624;9.212;2023-10-08T12:47:46;4.27;;;1.70;;
7817;SDS011;3954;52.624;9.212;2023-10-08T12:50:13;4.27;;;1.77;;
7817;SDS011;3954;52.624;9.212;2023-10-08T12:52:40;3.53;;;1.83;;
7817;SDS011;3954;52.624;9.212;2023-10-08T12:55:13;8.73;;;1.90;;
7817;SDS011;3954;52.624;9.212;2023-10-08T12:57:39;4.10;;;1.53;;
7817;SDS011;3954;52.624;9.212;2023-10-08T13:00:07;6.63;;;1.53;;
7817;SDS011;3954;52.624;9.212;2023-10-08T13:02:33;3.63;;;1.50;;
7817;SDS011;3954;52.624;9.212;2023-10-08T13:05:04;3.03;;;2.00;;
7817;SDS011;3954;52.624;9.212;2023-10-08T13:07:40;4.00;;;1.90;;
7817;SDS011;3954;52.624;9.212;2023-10-08T13:10:08;5.80;;;2.03;;
7817;SDS011;3954;52.624;9.212;2023-10-08T13:12:41;4.77;;;2.00;;
7817;SDS011;3954;52.624;9.212;2023-10-08T13:15:07;6.23;;;2.10;;
7817;SDS011;3954;52.624;9.212;2023-10-08T13:17:33;4.37;;;1.60;;
7817;SDS011;3954;52.624;9.212;2023-10-08T13:19:59;5.00;;;1.60;;
7817;SDS011;3954;52.624;9.212;2023-10-08T13:22:25;7.33;;;2.17;;
7817;SDS011;3954;52.624;9.212;2023-10-08T13:24:52;3.77;;;1.67;;
7817;SDS011;3954;52.624;9.212;2023-10-08T13:27:18;3.40;;;1.63;;
7817;SDS011;3954;52.624;9.212;2023-10-08T13:29:46;3.63;;;1.70;;
7817;SDS011;3954;52.624;9.212;2023-10-08T13:32:12;4.03;;;1.60;;
7817;SDS011;3954;52.624;9.212;2023-10-08T13:34:42;5.67;;;1.90;;
7817;SDS011;3954;52.624;9.212;2023-10-08T13:37:08;3.53;;;1.70;;
7817;SDS011;3954;52.624;9.212;2023-10-08T13:39:34;6.83;;;1.87;;
7817;SDS011;3954;52.624;9.212;2023-10-08T13:42:00;6.00;;;2.03;;
7817;SDS011;3954;52.624;9.212;2023-10-08T13:44:26;5.33;;;1.87;;
7817;SDS011;3954;52.624;9.212;2023-10-08T13:46:56;6.07;;;1.97;;
7817;SDS011;3954;52.624;9.212;2023-10-08T13:49:24;5.83;;;2.40;;
7817;SDS011;3954;52.624;9.212;2023-10-08T13:51:57;5.87;;;1.97;;
7817;SDS011;3954;52.624;9.212;2023-10-08T13:54:23;2.87;;;1.67;;
7817;SDS011;3954;52.624;9.212;2023-10-08T13:56:57;4.83;;;2.03;;
7817;SDS011;3954;52.624;9.212;2023-10-08T13:59:23;3.93;;;1.63;;
7817;SDS011;3954;52.624;9.212;2023-10-08T14:01:50;3.70;;;1.53;;
7817;SDS011;3954;52.624;9.212;2023-10-08T14:04:21;5.30;;;2.03;;
7817;SDS011;3954;52.624;9.212;2023-10-08T14:06:59;6.73;;;1.70;;
7817;SDS011;3954;52.624;9.212;2023-10-08T14:09:27;3.40;;;1.43;;
7817;SDS011;3954;52.624;9.212;2023-10-08T14:12:00;3.13;;;1.67;;
7817;SDS011;3954;52.624;9.212;2023-10-08T14:14:26;3.37;;;1.67;;
7817;SDS011;3954;52.624;9.212;2023-10-08T14:16:54;3.93;;;2.10;;
7817;SDS011;3954;52.624;9.212;2023-10-08T14:19:26;3.07;;;1.70;;
7817;SDS011;3954;52.624;9.212;2023-10-08T14:22:08;2.97;;;1.80;;
7817;SDS011;3954;52.624;9.212;2023-10-08T14:24:38;5.20;;;1.70;;
7817;SDS011;3954;52.624;9.212;2023-10-08T14:27:04;3.83;;;1.73;;
7817;SDS011;3954;52.624;9.212;2023-10-08T14:29:40;4.13;;;1.60;;
7817;SDS011;3954;52.624;9.212;2023-10-08T14:32:09;5.53;;;1.70;;
7817;SDS011;3954;52.624;9.212;2023-10-08T14:34:37;3.10;;;1.70;;
7817;SDS011;3954;52.624;9.212;2023-10-08T14:37:12;3.80;;;1.70;;
7817;SDS011;3954;52.624;9.212;2023-10-08T14:39:57;3.07;;;1.80;;
7817;SDS011;3954;52.624;9.212;2023-10-08T14:42:41;4.10;;;1.63;;
7817;SDS011;3954;52.624;9.212;2023-10-08T14:45:26;3.53;;;1.70;;
7817;SDS011;3954;52.624;9.212;2023-10-08T14:47:53;4.87;;;1.83;;
7817;SDS011;3954;52.624;9.212;2023-10-08T14:50:21;5.60;;;1.80;;
7817;SDS011;3954;52.624;9.212;2023-10-08T14:52:47;2.93;;;1.73;;
7817;SDS011;3954;52.624;9.212;2023-10-08T14:55:13;3.83;;;1.73;;
7817;SDS011;3954;52.624;9.212;2023-10-08T14:57:41;4.27;;;1.80;;
7817;SDS011;3954;52.624;9.212;2023-10-08T15:00:07;3.93;;;1.73;;
7817;SDS011;3954;52.624;9.212;2023-10-08T15:02:35;3.77;;;1.70;;
7817;SDS011;3954;52.624;9.212;2023-10-08T15:05:02;3.03;;;1.73;;
7817;SDS011;3954;52.624;9.212;2023-10-08T15:07:30;4.20;;;1.77;;
7817;SDS011;3954;52.624;9.212;2023-10-08T15:09:56;3.50;;;1.70;;
7817;SDS011;3954;52.624;9.212;2023-10-08T15:12:23;2.80;;;1.50;;
7817;SDS011;3954;52.624;9.212;2023-10-08T15:14:50;6.77;;;1.97;;
7817;SDS011;3954;52.624;9.212;2023-10-08T15:17:16;3.90;;;1.93;;
7817;SDS011;3954;52.624;9.212;2023-10-08T15:19:42;3.03;;;1.70;;
7817;SDS011;3954;52.624;9.212;2023-10-08T15:22:08;5.13;;;1.80;;
7817;SDS011;3954;52.624;9.212;2023-10-08T15:24:36;5.97;;;2.07;;
7817;SDS011;3954;52.624;9.212;2023-10-08T15:27:04;6.10;;;1.90;;
7817;SDS011;3954;52.624;9.212;2023-10-08T15:29:30;3.23;;;1.83;;
7817;SDS011;3954;52.624;9.212;2023-10-08T15:31:58;6.03;;;1.83;;
7817;SDS011;3954;52.624;9.212;2023-10-08T15:34:24;2.97;;;1.80;;
7817;SDS011;3954;52.624;9.212;2023-10-08T15:36:51;3.27;;;1.60;;